Time;durP1;ratioP1;P1;durP2;ratioP2;P2;SDS_P1;SDS_P2;PMS_P1;PMS_P2;Temp;Humidity;BMP_temperature;BMP_pressure;BME280_temperature;BME280_humidity;BME280_pressure;Samples;Min_cycle;Max_cycle;Signal;HPM_P1;HPM_P2
2022/04/06 00:02:03;;;;;;;7.60;6.30;;;8.40;99.90;;;;;;4980928;28;20210;-52
2022/04/06 00:04:31;;;;;;;8.50;6.55;;;8.40;99.90;;;;;;4979121;28;20203;-50
2022/04/06 00:06:59;;;;;;;7.28;6.43;;;8.50;99.90;;;;;;4981145;28;20498;-54
2022/04/06 00:09:26;;;;;;;7.75;6.60;;;8.50;99.90;;;;;;4978315;28;20206;-55
2022/04/06 00:11:53;;;;;;;8.02;6.75;;;8.60;99.90;;;;;;4980828;28;20379;-50
2022/04/06 00:14:21;;;;;;;7.68;6.88;;;8.60;99.90;;;;;;4980648;28;20556;-50
2022/04/06 00:16:48;;;;;;;7.28;6.50;;;8.60;99.90;;;;;;4980661;28;20223;-51
2022/04/06 00:19:17;;;;;;;8.70;7.85;;;8.60;99.90;;;;;;4980699;28;20198;-50
2022/04/06 00:21:45;;;;;;;9.75;7.18;;;8.60;99.90;;;;;;4980611;28;20387;-51
2022/04/06 00:24:13;;;;;;;8.15;7.00;;;8.60;99.90;;;;;;4980605;28;20203;-53
2022/04/06 00:26:40;;;;;;;8.10;7.30;;;8.70;99.90;;;;;;4981000;28;20229;-52
2022/04/06 00:29:08;;;;;;;11.50;7.57;;;8.80;99.90;;;;;;4980675;28;20251;-51
2022/04/06 00:31:36;;;;;;;7.13;6.53;;;8.80;99.90;;;;;;4981008;28;20477;-50
2022/04/06 00:34:06;;;;;;;8.55;7.68;;;8.80;99.90;;;;;;4980671;28;20237;-54
2022/04/06 00:36:33;;;;;;;7.38;6.55;;;8.80;99.90;;;;;;4980858;28;20202;-52
2022/04/06 00:39:01;;;;;;;10.93;7.45;;;8.90;99.90;;;;;;4980612;28;20214;-50
2022/04/06 00:41:28;;;;;;;8.52;6.72;;;8.80;99.90;;;;;;4980551;28;20202;-55
2022/04/06 00:44:22;;;;;;;7.97;6.90;;;8.70;99.90;;;;;;4980411;28;20202;-49
2022/04/06 00:46:49;;;;;;;6.55;5.88;;;8.80;99.90;;;;;;4981200;28;20225;-52
2022/04/06 00:49:17;;;;;;;6.53;5.93;;;8.90;99.90;;;;;;4980462;28;20242;-51
2022/04/06 00:51:47;;;;;;;7.30;6.60;;;8.90;99.90;;;;;;4980516;28;20203;-53
2022/04/06 00:54:16;;;;;;;8.82;6.30;;;9.00;99.90;;;;;;4979942;28;20472;-53
2022/04/06 00:56:46;;;;;;;7.03;6.05;;;9.10;99.90;;;;;;4985149;28;20200;-50
2022/04/06 00:59:16;;;;;;;8.02;6.55;;;9.00;99.90;;;;;;4984536;28;20200;-57
2022/04/06 01:01:48;;;;;;;7.30;6.60;;;8.90;99.90;;;;;;4985435;28;20206;-50
2022/04/06 01:04:16;;;;;;;7.47;6.30;;;8.90;99.90;;;;;;4984579;28;20203;-51
2022/04/06 01:06:46;;;;;;;8.73;7.28;;;9.00;99.90;;;;;;4982597;28;20212;-50
2022/04/06 01:09:20;;;;;;;9.48;7.50;;;9.10;99.90;;;;;;4983932;28;20227;-53
2022/04/06 01:11:48;;;;;;;8.35;7.50;;;9.10;99.90;;;;;;4983676;28;20211;-52
2022/04/06 01:14:17;;;;;;;8.50;7.60;;;9.10;99.90;;;;;;4983542;28;20434;-51
2022/04/06 01:17:00;;;;;;;6.85;6.25;;;9.00;99.90;;;;;;4983985;28;20217;-51
2022/04/06 01:19:35;;;;;;;10.15;9.13;;;9.00;99.90;;;;;;4981540;28;20195;-52
2022/04/06 01:22:14;;;;;;;9.65;8.75;;;9.20;99.90;;;;;;4983571;28;20253;-53
2022/04/06 01:24:43;;;;;;;9.38;7.93;;;9.20;99.90;;;;;;4984111;28;20557;-50
2022/04/06 01:27:11;;;;;;;8.57;7.75;;;9.20;99.90;;;;;;4986712;28;20410;-52
2022/04/06 01:29:41;;;;;;;8.50;7.07;;;9.20;99.90;;;;;;4985790;28;20266;-54
2022/04/06 01:32:18;;;;;;;9.75;8.75;;;9.30;99.90;;;;;;4983654;28;20270;-52
2022/04/06 01:34:47;;;;;;;9.35;8.45;;;9.30;99.90;;;;;;4983712;28;20547;-54
2022/04/06 01:37:16;;;;;;;9.85;7.18;;;9.30;99.90;;;;;;4983420;28;20222;-48
2022/04/06 01:39:47;;;;;;;9.52;8.57;;;9.30;99.90;;;;;;4983387;28;20271;-52
2022/04/06 01:42:18;;;;;;;8.63;7.82;;;9.40;99.90;;;;;;4983568;28;20203;-51
2022/04/06 01:44:46;;;;;;;8.38;7.68;;;9.40;99.90;;;;;;4983866;28;20211;-53
2022/04/06 01:47:15;;;;;;;8.93;7.85;;;9.30;99.90;;;;;;4983327;28;20227;-52
2022/04/06 01:52:32;;;;;;;8.20;7.40;;;9.40;99.90;;;;;;4983509;28;20207;-52
2022/04/06 01:55:12;;;;;;;7.05;6.35;;;9.30;99.90;;;;;;4983025;28;20233;-49
2022/04/06 01:57:40;;;;;;;9.48;8.05;;;9.20;99.90;;;;;;4982813;28;20247;-54
2022/04/06 02:00:15;;;;;;;8.05;7.22;;;9.30;99.90;;;;;;4983273;28;20406;-52
2022/04/06 02:02:53;;;;;;;7.72;6.97;;;9.40;99.90;;;;;;4982758;28;20205;-50
2022/04/06 02:05:21;;;;;;;7.55;6.75;;;9.50;99.90;;;;;;4982119;28;20206;-50
2022/04/06 02:08:06;;;;;;;9.20;8.30;;;9.60;99.90;;;;;;4980520;28;20232;-52
2022/04/06 02:10:35;;;;;;;10.23;8.70;;;9.50;99.90;;;;;;4981723;28;20230;-52
2022/04/06 02:13:03;;;;;;;8.52;7.65;;;9.50;99.90;;;;;;4981213;28;20202;-50
2022/04/06 02:15:31;;;;;;;10.57;8.98;;;9.40;99.90;;;;;;4983135;28;20255;-50
2022/04/06 02:18:01;;;;;;;8.93;8.05;;;9.40;99.90;;;;;;4982735;28;20224;-53
2022/04/06 02:20:28;;;;;;;10.05;8.95;;;9.30;99.90;;;;;;4982886;28;20206;-48
2022/04/06 02:22:56;;;;;;;12.10;9.65;;;9.40;99.90;;;;;;4982740;28;20212;-52
2022/04/06 02:25:23;;;;;;;12.00;8.70;;;9.40;99.90;;;;;;4982583;28;20208;-51
2022/04/06 02:27:53;;;;;;;8.50;7.78;;;9.40;99.90;;;;;;4982888;28;20489;-50
2022/04/06 02:30:21;;;;;;;8.88;7.97;;;9.40;99.90;;;;;;4981945;28;20419;-50
2022/04/06 02:32:48;;;;;;;8.80;7.97;;;9.50;99.90;;;;;;4982796;28;20436;-49
2022/04/06 02:35:16;;;;;;;9.55;8.65;;;9.40;99.90;;;;;;4982218;28;20247;-50
2022/04/06 02:37:44;;;;;;;9.52;8.63;;;9.30;99.90;;;;;;4982636;28;20227;-50
2022/04/06 02:40:13;;;;;;;8.38;7.60;;;9.40;99.90;;;;;;4981923;28;20212;-48
2022/04/06 02:42:42;;;;;;;8.70;7.80;;;9.30;99.90;;;;;;4982977;28;20486;-54
2022/04/06 02:45:10;;;;;;;7.78;6.97;;;9.30;99.90;;;;;;4982577;28;20206;-49
2022/04/06 02:47:44;;;;;;;8.10;7.28;;;9.20;99.90;;;;;;4982764;28;20269;-49
2022/04/06 02:50:11;;;;;;;7.82;6.30;;;9.20;99.90;;;;;;4982158;28;20226;-50
2022/04/06 02:52:39;;;;;;;7.60;6.90;;;9.40;99.90;;;;;;4981999;28;20234;-51
2022/04/06 02:55:09;;;;;;;5.85;5.35;;;9.40;99.90;;;;;;4982497;28;20304;-56
2022/04/06 02:57:36;;;;;;;5.43;4.95;;;9.30;99.90;;;;;;4982144;28;20265;-52
2022/04/06 03:00:03;;;;;;;7.38;5.03;;;9.30;99.90;;;;;;4980837;28;20200;-53
2022/04/06 03:02:31;;;;;;;6.65;5.95;;;9.20;99.90;;;;;;4982012;28;20506;-53
2022/04/06 03:04:58;;;;;;;4.90;4.50;;;9.20;99.90;;;;;;4982075;28;20202;-53
2022/04/06 03:07:30;;;;;;;7.95;5.00;;;9.30;99.90;;;;;;4981140;28;20230;-51
2022/04/06 03:10:01;;;;;;;5.15;4.75;;;9.20;99.90;;;;;;4982208;28;20348;-49
2022/04/06 03:12:35;;;;;;;4.65;4.25;;;9.20;99.90;;;;;;4982249;28;20206;-49
2022/04/06 03:15:03;;;;;;;4.55;4.15;;;9.20;99.90;;;;;;4982122;28;20238;-55
2022/04/06 03:17:30;;;;;;;5.60;5.00;;;9.20;99.90;;;;;;4982051;28;20412;-52
2022/04/06 03:19:57;;;;;;;5.88;5.18;;;9.30;99.90;;;;;;4981489;28;20207;-53
2022/04/06 03:22:25;;;;;;;5.03;4.55;;;9.30;99.90;;;;;;4981921;28;20204;-50
2022/04/06 03:24:52;;;;;;;4.88;4.38;;;9.40;99.90;;;;;;4981402;28;20430;-50
2022/04/06 03:27:21;;;;;;;4.88;4.47;;;9.30;99.90;;;;;;4981629;28;20236;-53
2022/04/06 03:29:48;;;;;;;6.25;5.63;;;9.30;99.90;;;;;;4981748;28;20204;-53
2022/04/06 03:32:16;;;;;;;7.97;4.90;;;9.30;99.90;;;;;;4979573;28;20206;-49
2022/04/06 03:34:43;;;;;;;5.82;5.20;;;9.30;99.90;;;;;;4981798;28;20244;-54
2022/04/06 03:37:10;;;;;;;9.35;6.40;;;9.10;99.90;;;;;;4981298;28;20247;-53
2022/04/06 03:39:38;;;;;;;7.40;6.07;;;9.00;99.90;;;;;;4980516;28;20250;-51
2022/04/06 03:42:06;;;;;;;7.18;6.47;;;9.10;99.90;;;;;;4981690;28;20249;-54
2022/04/06 03:44:33;;;;;;;9.15;8.20;;;9.00;99.90;;;;;;4981418;28;20206;-50
2022/04/06 03:47:00;;;;;;;8.93;8.02;;;8.90;99.90;;;;;;4980878;28;20459;-53
2022/04/06 03:49:28;;;;;;;8.77;7.90;;;8.80;99.90;;;;;;4978842;28;20216;-51
2022/04/06 03:51:55;;;;;;;9.95;8.95;;;8.80;99.90;;;;;;4981561;28;20202;-54
2022/04/06 03:54:23;;;;;;;9.88;8.82;;;8.80;99.90;;;;;;4981037;28;20539;-50
2022/04/06 03:56:50;;;;;;;12.98;10.23;;;8.80;99.90;;;;;;4978627;28;20430;-50
2022/04/06 03:59:18;;;;;;;13.23;11.07;;;8.80;99.90;;;;;;4979267;28;20213;-53
2022/04/06 04:01:48;;;;;;;12.85;10.32;;;9.00;99.90;;;;;;4980938;28;20192;-52
2022/04/06 04:04:16;;;;;;;13.32;11.85;;;9.00;99.90;;;;;;4980478;28;20269;-55
2022/04/06 04:06:44;;;;;;;9.95;9.00;;;9.00;99.90;;;;;;4981300;28;20218;-53
2022/04/06 04:09:13;;;;;;;13.27;11.43;;;8.90;99.90;;;;;;4981565;28;20221;-54
2022/04/06 04:11:42;;;;;;;12.52;10.75;;;8.90;99.90;;;;;;4981580;28;20483;-52
2022/04/06 04:14:12;;;;;;;13.50;10.60;;;8.90;99.90;;;;;;4977274;28;20273;-54
2022/04/06 04:16:40;;;;;;;13.98;12.07;;;9.00;99.90;;;;;;4982228;28;20207;-58
2022/04/06 04:19:08;;;;;;;14.32;11.40;;;8.90;99.90;;;;;;4981528;28;20229;-52
2022/04/06 04:21:36;;;;;;;13.40;11.80;;;9.00;99.90;;;;;;4981100;28;20252;-53
2022/04/06 04:24:08;;;;;;;16.75;13.15;;;9.10;99.90;;;;;;4980641;28;20202;-53
2022/04/06 04:26:36;;;;;;;17.50;13.80;;;9.00;99.90;;;;;;4973143;28;20210;-52
2022/04/06 04:29:04;;;;;;;17.20;14.50;;;9.10;99.90;;;;;;4975719;28;20225;-52
2022/04/06 04:31:32;;;;;;;14.73;12.90;;;9.10;99.90;;;;;;4973450;28;20203;-53
2022/04/06 04:33:59;;;;;;;16.52;14.07;;;9.20;99.90;;;;;;4974772;28;20222;-55
2022/04/06 04:36:27;;;;;;;17.50;14.50;;;9.20;99.90;;;;;;4976497;28;20525;-51
2022/04/06 04:38:55;;;;;;;14.77;13.18;;;9.10;99.90;;;;;;4987604;28;20222;-53
2022/04/06 04:41:22;;;;;;;16.88;14.55;;;9.10;99.90;;;;;;4987520;28;20201;-50
2022/04/06 04:43:50;;;;;;;16.25;14.02;;;9.10;99.90;;;;;;4987815;28;20199;-50
2022/04/06 04:46:18;;;;;;;15.15;13.55;;;9.20;99.90;;;;;;4987700;28;20206;-49
2022/04/06 04:48:47;;;;;;;15.85;13.73;;;9.00;99.90;;;;;;4987679;28;20227;-54
2022/04/06 04:51:15;;;;;;;16.45;14.23;;;9.00;99.90;;;;;;4979812;28;20395;-54
2022/04/06 04:53:42;;;;;;;17.58;14.23;;;9.10;99.90;;;;;;4983512;28;20213;-55
2022/04/06 04:56:10;;;;;;;17.10;13.48;;;9.10;99.90;;;;;;4987276;28;20379;-51
2022/04/06 04:58:37;;;;;;;18.23;13.05;;;9.10;99.90;;;;;;4987413;28;20224;-55
2022/04/06 05:01:04;;;;;;;17.13;13.05;;;9.10;99.90;;;;;;4987669;28;20494;-51
2022/04/06 05:03:40;;;;;;;17.75;13.65;;;9.10;99.90;;;;;;4987732;28;20200;-52
2022/04/06 05:06:07;;;;;;;17.27;12.70;;;9.20;99.90;;;;;;4988125;28;20437;-51
2022/04/06 05:08:35;;;;;;;19.08;13.90;;;9.20;99.90;;;;;;4988071;28;20457;-51
2022/04/06 05:11:02;;;;;;;21.67;15.07;;;9.20;99.90;;;;;;4986495;28;20202;-53
2022/04/06 05:13:29;;;;;;;17.35;12.73;;;9.30;99.90;;;;;;4987393;28;20241;-50
2022/04/06 05:16:00;;;;;;;16.38;11.52;;;9.20;99.90;;;;;;4987226;28;20278;-53
2022/04/06 05:18:29;;;;;;;15.77;10.70;;;9.20;99.90;;;;;;4987751;28;20226;-50
2022/04/06 05:21:00;;;;;;;14.25;10.82;;;9.30;99.90;;;;;;4987204;28;20205;-52
2022/04/06 05:23:29;;;;;;;12.55;11.25;;;9.20;99.90;;;;;;4987454;28;20203;-51
2022/04/06 05:25:56;;;;;;;10.95;9.80;;;9.30;99.90;;;;;;4987248;28;20206;-56
2022/04/06 05:28:23;;;;;;;12.55;10.07;;;9.40;99.90;;;;;;4975415;28;20239;-53
2022/04/06 05:30:51;;;;;;;10.07;8.98;;;9.40;99.90;;;;;;4972817;28;20203;-52
2022/04/06 05:33:18;;;;;;;11.45;9.93;;;9.40;99.90;;;;;;4974093;28;20223;-53
2022/04/06 05:35:47;;;;;;;10.38;8.93;;;9.50;99.90;;;;;;4987262;28;20235;-50
2022/04/06 05:38:14;;;;;;;9.90;8.88;;;9.50;99.90;;;;;;4991128;28;20218;-55
2022/04/06 05:40:41;;;;;;;8.60;7.80;;;9.60;99.90;;;;;;4982497;28;20245;-56
2022/04/06 05:43:09;;;;;;;13.35;8.82;;;9.60;99.90;;;;;;4990486;28;20199;-53
2022/04/06 05:45:36;;;;;;;9.00;8.10;;;9.60;99.90;;;;;;4985020;28;20287;-53
2022/04/06 05:48:05;;;;;;;9.93;8.73;;;9.70;99.90;;;;;;4984972;28;20550;-50
2022/04/06 05:50:33;;;;;;;8.57;7.75;;;9.80;99.90;;;;;;4984342;28;20225;-54
2022/04/06 05:53:00;;;;;;;11.48;8.32;;;9.90;99.90;;;;;;4985093;28;20226;-56
2022/04/06 05:55:28;;;;;;;9.70;8.63;;;9.90;99.90;;;;;;5002771;28;20279;-57
2022/04/06 05:57:55;;;;;;;9.10;7.90;;;10.00;99.90;;;;;;5002789;28;20220;-55
2022/04/06 06:00:25;;;;;;;8.13;7.45;;;10.00;99.90;;;;;;5003020;28;20211;-50
2022/04/06 06:02:53;;;;;;;6.63;6.00;;;10.20;99.90;;;;;;5002284;28;20215;-50
2022/04/06 06:05:21;;;;;;;7.03;6.35;;;10.20;99.90;;;;;;4999186;28;20263;-52
2022/04/06 06:07:50;;;;;;;7.22;6.53;;;10.20;99.90;;;;;;4976025;28;20240;-50
2022/04/06 06:10:18;;;;;;;7.40;5.90;;;10.40;99.90;;;;;;4977393;28;20250;-51
2022/04/06 06:12:48;;;;;;;6.25;5.63;;;10.40;99.90;;;;;;4975903;28;20197;-55
2022/04/06 06:15:15;;;;;;;7.65;6.85;;;10.50;99.90;;;;;;4977480;28;20248;-51
2022/04/06 06:17:43;;;;;;;5.05;4.55;;;10.50;99.90;;;;;;4975217;28;20225;-50
2022/04/06 06:20:10;;;;;;;5.72;5.28;;;10.50;99.90;;;;;;4975945;28;20435;-53
2022/04/06 06:22:39;;;;;;;5.93;5.35;;;10.50;99.90;;;;;;4976290;28;20205;-52
2022/04/06 06:25:08;;;;;;;5.07;4.57;;;10.50;99.90;;;;;;4974905;28;20231;-54
2022/04/06 06:27:40;;;;;;;6.35;5.68;;;10.70;99.90;;;;;;4975488;28;20536;-51
2022/04/06 06:30:10;;;;;;;5.28;4.88;;;10.80;99.90;;;;;;4982265;28;20208;-53
2022/04/06 06:32:38;;;;;;;6.60;5.93;;;10.80;99.90;;;;;;4983840;28;20204;-53
2022/04/06 06:35:08;;;;;;;4.82;4.32;;;10.90;99.90;;;;;;4983792;28;20491;-53
2022/04/06 06:37:35;;;;;;;4.68;4.28;;;11.00;99.90;;;;;;4983021;28;20531;-52
2022/04/06 06:40:04;;;;;;;6.78;6.18;;;11.10;99.90;;;;;;4983368;28;20213;-52
2022/04/06 06:42:31;;;;;;;9.60;5.38;;;11.00;99.90;;;;;;4983109;28;20200;-52
2022/04/06 06:44:59;;;;;;;5.38;4.63;;;10.90;99.90;;;;;;4983396;28;20213;-52
2022/04/06 06:47:26;;;;;;;3.97;3.45;;;10.80;99.90;;;;;;4982459;28;20221;-54
2022/04/06 06:49:53;;;;;;;3.75;3.45;;;10.90;99.90;;;;;;4983264;28;20213;-53
2022/04/06 06:52:20;;;;;;;3.20;2.90;;;11.00;99.90;;;;;;4982437;28;20247;-53
2022/04/06 06:54:47;;;;;;;5.55;4.70;;;11.00;99.90;;;;;;4982725;28;20364;-53
2022/04/06 06:57:15;;;;;;;4.70;3.53;;;11.00;99.90;;;;;;4981715;28;20220;-52
2022/04/06 06:59:43;;;;;;;2.67;2.47;;;11.10;99.90;;;;;;4985455;28;20205;-53
2022/04/06 07:02:10;;;;;;;4.15;3.75;;;11.40;99.90;;;;;;4983398;28;20205;-53
2022/04/06 07:04:37;;;;;;;3.08;2.88;;;11.50;99.90;;;;;;4974268;28;20253;-55
2022/04/06 07:07:04;;;;;;;4.82;3.38;;;11.40;99.90;;;;;;4976989;28;20236;-51
2022/04/06 07:09:32;;;;;;;6.32;4.15;;;11.50;99.90;;;;;;4974083;28;20452;-53
2022/04/06 07:11:59;;;;;;;4.25;3.92;;;11.80;99.90;;;;;;4980015;28;20205;-54
2022/04/06 07:14:27;;;;;;;5.10;4.18;;;11.90;99.90;;;;;;4981918;28;20268;-54
2022/04/06 07:16:54;;;;;;;3.72;3.42;;;11.90;99.90;;;;;;4982291;28;20564;-50
2022/04/06 07:19:22;;;;;;;3.40;3.10;;;11.80;99.90;;;;;;4982183;28;20215;-53
2022/04/06 07:21:49;;;;;;;4.72;4.30;;;11.80;99.90;;;;;;4982181;28;20379;-54
2022/04/06 07:24:16;;;;;;;5.00;3.20;;;11.80;99.90;;;;;;4981924;28;20198;-54
2022/04/06 07:26:44;;;;;;;8.73;5.20;;;11.80;99.90;;;;;;4981805;28;20232;-53
2022/04/06 07:29:14;;;;;;;7.97;4.78;;;11.80;99.90;;;;;;4981629;28;20227;-54
2022/04/06 07:31:43;;;;;;;6.63;5.35;;;12.10;99.90;;;;;;4981954;28;20559;-53
2022/04/06 07:34:15;;;;;;;4.75;4.32;;;12.20;99.90;;;;;;4981689;28;20202;-52
2022/04/06 07:36:42;;;;;;;7.45;5.82;;;12.40;99.90;;;;;;4982003;28;20225;-51
2022/04/06 07:39:10;;;;;;;4.20;3.63;;;12.50;99.90;;;;;;4982283;28;20217;-55
2022/04/06 07:41:39;;;;;;;5.63;5.13;;;12.50;99.90;;;;;;4982282;28;20205;-51
2022/04/06 07:44:10;;;;;;;10.40;6.43;;;12.40;99.90;;;;;;4981724;28;20337;-56
2022/04/06 07:46:38;;;;;;;7.75;6.50;;;12.50;99.90;;;;;;4981915;28;20224;-55
2022/04/06 07:49:07;;;;;;;7.82;6.47;;;12.60;99.90;;;;;;4981546;28;20500;-54
2022/04/06 07:51:36;;;;;;;8.10;6.47;;;12.60;99.90;;;;;;4981583;28;20520;-51
2022/04/06 07:54:04;;;;;;;8.98;8.07;;;12.70;99.90;;;;;;4981311;28;20513;-51
2022/04/06 07:56:34;;;;;;;9.40;6.85;;;12.50;99.90;;;;;;4981872;28;20225;-50
2022/04/06 07:59:01;;;;;;;5.57;4.68;;;12.50;99.90;;;;;;4982108;28;20496;-50
2022/04/06 08:01:31;;;;;;;6.05;5.50;;;12.50;99.90;;;;;;4981580;28;20453;-51
2022/04/06 08:03:58;;;;;;;6.63;5.60;;;12.70;99.90;;;;;;4981855;28;20245;-51
2022/04/06 08:06:25;;;;;;;6.95;6.32;;;12.60;99.90;;;;;;4981297;28;20206;-54
2022/04/06 08:08:54;;;;;;;4.80;4.40;;;12.50;99.90;;;;;;4981816;28;20237;-52
2022/04/06 08:11:21;;;;;;;5.60;5.07;;;12.70;99.90;;;;;;4980331;28;20205;-49
2022/04/06 08:13:50;;;;;;;6.13;4.63;;;13.00;99.90;;;;;;4981510;28;20241;-52
2022/04/06 08:16:17;;;;;;;6.55;4.60;;;13.00;99.90;;;;;;4980993;28;20296;-52
2022/04/06 08:18:45;;;;;;;5.50;4.57;;;13.00;99.90;;;;;;4981833;28;20222;-51
2022/04/06 08:21:12;;;;;;;5.20;4.07;;;13.10;99.90;;;;;;4981292;28;20201;-51
2022/04/06 08:23:39;;;;;;;7.45;4.85;;;13.10;99.90;;;;;;4981375;28;20198;-50
2022/04/06 08:26:07;;;;;;;4.35;3.95;;;13.10;99.90;;;;;;4981326;28;20325;-55
2022/04/06 08:28:34;;;;;;;5.63;4.47;;;13.20;99.90;;;;;;4980755;28;20221;-53
2022/04/06 08:31:02;;;;;;;5.03;4.13;;;13.20;99.90;;;;;;4981735;28;20212;-58
2022/04/06 08:33:29;;;;;;;3.70;3.40;;;12.90;99.90;;;;;;4980770;28;20205;-51
2022/04/06 08:35:56;;;;;;;4.72;3.42;;;12.70;99.90;;;;;;4981132;28;20226;-52
2022/04/06 08:38:24;;;;;;;5.05;4.07;;;12.60;99.90;;;;;;4980912;28;20277;-53
2022/04/06 08:40:53;;;;;;;6.00;4.38;;;12.60;99.90;;;;;;4981652;28;20206;-51
2022/04/06 08:43:22;;;;;;;4.13;3.72;;;12.60;99.90;;;;;;4981334;28;20206;-55
2022/04/06 08:45:50;;;;;;;5.28;3.97;;;12.70;99.90;;;;;;4981146;28;20212;-51
2022/04/06 08:48:20;;;;;;;5.97;3.30;;;12.80;99.90;;;;;;4980893;28;20261;-52
2022/04/06 08:50:49;;;;;;;3.83;3.45;;;13.10;99.90;;;;;;4980677;28;20261;-56
2022/04/06 08:53:20;;;;;;;3.97;3.03;;;13.40;99.90;;;;;;4981096;28;20500;-54
2022/04/06 08:55:48;;;;;;;3.97;3.47;;;13.50;99.90;;;;;;4981276;28;20251;-50
2022/04/06 08:58:15;;;;;;;7.35;4.07;;;13.80;99.90;;;;;;4980863;28;20222;-53
2022/04/06 09:00:42;;;;;;;4.90;3.25;;;13.70;99.90;;;;;;4981174;28;20202;-51
2022/04/06 09:03:12;;;;;;;4.15;3.72;;;13.50;99.90;;;;;;4980626;28;20400;-49
2022/04/06 09:05:39;;;;;;;5.18;3.45;;;13.40;99.90;;;;;;4981210;28;20206;-55
2022/04/06 09:08:07;;;;;;;3.90;3.60;;;13.30;99.90;;;;;;4980060;28;20233;-55
2022/04/06 09:10:40;;;;;;;4.03;3.72;;;13.30;99.90;;;;;;4980721;28;20205;-53
2022/04/06 09:13:20;;;;;;;3.60;3.30;;;13.40;99.90;;;;;;4980803;28;20518;-54
2022/04/06 09:15:53;;;;;;;3.30;3.00;;;13.50;99.90;;;;;;4981122;28;20245;-52
2022/04/06 09:18:33;;;;;;;4.15;3.40;;;13.60;99.90;;;;;;4980226;28;20251;-57
2022/04/06 09:21:04;;;;;;;4.45;4.03;;;13.70;99.90;;;;;;4981339;28;20257;-55
2022/04/06 09:23:32;;;;;;;4.82;3.28;;;13.80;99.90;;;;;;4983982;28;20273;-55
2022/04/06 09:26:13;;;;;;;6.18;4.47;;;13.80;99.90;;;;;;4984399;28;20513;-53
2022/04/06 09:28:47;;;;;;;4.63;3.80;;;13.80;99.90;;;;;;4984345;28;20229;-51
2022/04/06 09:31:16;;;;;;;6.07;4.25;;;13.60;99.90;;;;;;4984586;28;20210;-54
2022/04/06 09:33:57;;;;;;;7.85;5.68;;;13.30;99.90;;;;;;4984553;28;20210;-50
2022/04/06 09:36:27;;;;;;;6.30;4.18;;;13.40;99.90;;;;;;4984299;28;20245;-55
2022/04/06 09:38:55;;;;;;;5.18;4.68;;;13.70;99.90;;;;;;4984148;28;20535;-53
2022/04/06 09:41:22;;;;;;;7.00;6.30;;;13.60;99.90;;;;;;4983631;28;20214;-50
2022/04/06 09:43:53;;;;;;;6.65;6.00;;;13.60;99.90;;;;;;4985137;28;20202;-51
2022/04/06 09:49:18;;;;;;;5.20;4.80;;;13.30;99.90;;;;;;4984005;28;20513;-57
2022/04/06 09:51:49;;;;;;;5.28;4.20;;;13.30;99.90;;;;;;4985343;28;20210;-55
2022/04/06 09:54:17;;;;;;;9.70;6.60;;;13.50;99.90;;;;;;4987164;28;20211;-54
2022/04/06 09:56:45;;;;;;;7.15;5.10;;;13.70;99.90;;;;;;4988120;28;20442;-57
2022/04/06 09:59:15;;;;;;;6.65;5.45;;;13.70;99.90;;;;;;4988569;28;20206;-55
2022/04/06 10:01:51;;;;;;;6.93;5.53;;;13.40;99.90;;;;;;4988736;28;20349;-53
2022/04/06 10:04:25;;;;;;;6.28;5.65;;;13.30;99.90;;;;;;4988627;28;20202;-55
2022/04/06 10:06:52;;;;;;;8.00;7.20;;;13.20;99.90;;;;;;4983806;28;20234;-52
2022/04/06 10:09:20;;;;;;;7.72;7.03;;;13.10;99.90;;;;;;4983558;28;20199;-54
2022/04/06 10:11:51;;;;;;;6.85;5.22;;;13.20;99.90;;;;;;4983632;28;20445;-52
2022/04/06 10:14:23;;;;;;;9.57;6.50;;;13.20;99.90;;;;;;4984180;28;20202;-53
2022/04/06 10:16:51;;;;;;;7.25;6.15;;;13.30;99.90;;;;;;4983790;28;20285;-52
2022/04/06 10:19:21;;;;;;;7.60;6.32;;;13.20;99.90;;;;;;4984315;28;20253;-52
2022/04/06 10:22:25;;;;;;;5.97;5.38;;;13.30;99.90;;;;;;4983730;28;20198;-52
2022/04/06 10:25:08;;;;;;;5.50;4.90;;;13.50;99.90;;;;;;4983253;28;20198;-54
2022/04/06 10:27:41;;;;;;;7.43;3.40;;;13.90;99.90;;;;;;4983587;28;20365;-51
2022/04/06 10:30:14;;;;;;;3.08;2.88;;;14.10;99.90;;;;;;4983118;28;20226;-55
2022/04/06 10:32:43;;;;;;;3.03;2.80;;;14.40;99.90;;;;;;4983202;28;20245;-51
2022/04/06 10:35:23;;;;;;;4.57;3.80;;;14.70;99.90;;;;;;4982364;28;20505;-53
2022/04/06 10:37:56;;;;;;;2.95;2.75;;;15.30;99.90;;;;;;4983397;28;20237;-52
2022/04/06 10:40:24;;;;;;;3.88;3.20;;;15.70;99.90;;;;;;4982606;28;20194;-54
2022/04/06 10:42:53;;;;;;;3.17;2.88;;;15.80;99.90;;;;;;4983181;28;20515;-52
2022/04/06 10:45:29;;;;;;;2.85;2.65;;;15.90;99.90;;;;;;4982740;28;20207;-55
2022/04/06 10:48:18;;;;;;;7.03;3.97;;;15.80;99.90;;;;;;4982364;28;20565;-51
2022/04/06 10:50:47;;;;;;;3.35;2.97;;;15.70;99.90;;;;;;4983385;28;20421;-55
2022/04/06 10:53:20;;;;;;;5.72;3.47;;;15.60;99.90;;;;;;4982255;28;20258;-53
2022/04/06 10:56:06;;;;;;;3.10;2.85;;;15.70;99.90;;;;;;4982440;28;20204;-54
2022/04/06 10:58:55;;;;;;;13.33;3.80;;;15.90;99.90;;;;;;4982400;28;20397;-50
2022/04/06 11:01:30;;;;;;;2.87;2.67;;;16.70;99.90;;;;;;4982465;28;20646;-53
2022/04/06 11:04:03;;;;;;;2.67;2.47;;;17.20;99.90;;;;;;4982641;28;20410;-56
2022/04/06 11:06:48;;;;;;;3.23;2.93;;;17.80;99.90;;;;;;4982320;28;20422;-56
2022/04/06 11:12:20;;;;;;;3.90;2.93;;;17.70;99.90;;;;;;4982751;28;20410;-52
2022/04/06 11:14:59;;;;;;;4.10;3.47;;;17.80;99.90;;;;;;4974822;28;20425;-56
2022/04/06 11:17:34;;;;;;;2.97;2.67;;;17.70;99.90;;;;;;4979167;28;20462;-56
2022/04/06 11:20:04;;;;;;;6.10;3.40;;;17.50;99.90;;;;;;4979418;28;20445;-55
2022/04/06 11:22:39;;;;;;;3.80;3.37;;;17.30;99.90;;;;;;4981729;28;20407;-54
2022/04/06 11:25:08;;;;;;;4.20;3.80;;;17.30;99.90;;;;;;4978404;28;20446;-53
2022/04/06 11:27:36;;;;;;;6.17;4.00;;;16.90;99.90;;;;;;4981462;28;20449;-49
2022/04/06 11:30:26;;;;;;;3.80;3.30;;;16.50;99.90;;;;;;4982008;28;20642;-52
2022/04/06 11:33:00;;;;;;;6.37;4.10;;;16.50;99.90;;;;;;4981773;28;20442;-52
2022/04/06 11:35:28;;;;;;;3.87;3.57;;;16.40;99.90;;;;;;4981265;28;20461;-52
2022/04/06 11:37:56;;;;;;;5.47;4.90;;;16.10;99.90;;;;;;4980602;28;20459;-52
2022/04/06 11:40:29;;;;;;;5.50;4.43;;;15.90;99.90;;;;;;4980643;28;20472;-55
2022/04/06 11:42:58;;;;;;;4.53;4.10;;;15.90;99.90;;;;;;4974120;28;20976;-55
2022/04/06 11:45:29;;;;;;;4.60;4.20;;;15.70;99.90;;;;;;4974328;28;20449;-55
2022/04/06 11:48:00;;;;;;;3.57;3.23;;;15.80;99.90;;;;;;4983007;28;20475;-56
2022/04/06 11:50:29;;;;;;;4.70;3.13;;;15.90;99.90;;;;;;4981691;28;20442;-51
2022/04/06 11:53:17;;;;;;;4.07;3.73;;;15.90;99.90;;;;;;4981251;28;20491;-51
2022/04/06 11:55:54;;;;;;;3.80;3.40;;;15.80;99.90;;;;;;4981509;28;20408;-54
2022/04/06 11:58:44;;;;;;;4.07;3.50;;;15.50;99.90;;;;;;4974138;28;20810;-53
2022/04/06 12:01:17;;;;;;;8.10;3.60;;;15.50;99.90;;;;;;4981416;28;20438;-56
2022/04/06 12:03:46;;;;;;;3.60;3.17;;;15.70;99.90;;;;;;4981485;28;20195;-55
2022/04/06 12:06:16;;;;;;;3.80;3.40;;;15.80;99.90;;;;;;4980877;28;20711;-51
2022/04/06 12:08:44;;;;;;;3.43;2.73;;;16.00;99.90;;;;;;4981147;28;20428;-51
2022/04/06 12:11:11;;;;;;;5.23;2.17;;;16.20;99.90;;;;;;4981008;28;20613;-52
2022/04/06 12:13:41;;;;;;;5.37;3.10;;;16.20;99.90;;;;;;4980654;28;20594;-51
2022/04/06 12:16:12;;;;;;;2.83;2.63;;;16.20;99.90;;;;;;4979596;28;20697;-52
2022/04/06 12:18:41;;;;;;;3.50;3.20;;;16.20;99.90;;;;;;4980329;28;20522;-52
2022/04/06 12:21:28;;;;;;;3.67;2.83;;;16.10;99.90;;;;;;4979902;28;20422;-56
2022/04/06 12:23:56;;;;;;;3.20;2.93;;;15.90;99.90;;;;;;4980845;28;20437;-52
2022/04/06 12:26:24;;;;;;;3.23;2.93;;;15.90;99.90;;;;;;4981295;28;20485;-52
2022/04/06 12:29:00;;;;;;;2.73;2.40;;;16.00;99.90;;;;;;4980137;28;20595;-56
2022/04/06 12:31:42;;;;;;;4.50;3.30;;;16.10;99.90;;;;;;4975675;28;20413;-57
2022/04/06 12:34:31;;;;;;;5.43;2.90;;;16.20;99.90;;;;;;4979070;28;20417;-53
2022/04/06 12:37:29;;;;;;;2.70;2.50;;;16.40;99.90;;;;;;4985259;28;20512;-52
2022/04/06 12:39:54;;;;;;;3.50;3.17;;;16.60;99.90;;;;;;4980976;28;20464;-53
2022/04/06 12:42:22;;;;;;;3.70;2.70;;;16.90;99.90;;;;;;4980951;28;20513;-53
2022/04/06 12:44:57;;;;;;;3.30;3.00;;;17.00;99.90;;;;;;4980951;28;20505;-53
2022/04/06 12:47:26;;;;;;;4.90;3.50;;;17.00;99.90;;;;;;4980807;28;20794;-52
2022/04/06 12:50:19;;;;;;;4.40;3.60;;;17.20;99.90;;;;;;4981037;28;20444;-56
2022/04/06 12:53:07;;;;;;;3.23;2.40;;;17.50;99.90;;;;;;4980934;28;20572;-53
2022/04/06 12:55:39;;;;;;;3.33;3.10;;;17.80;99.90;;;;;;4980957;28;20433;-55
2022/04/06 12:58:19;;;;;;;3.60;3.30;;;17.70;99.90;;;;;;4984100;28;20553;-56
2022/04/06 13:00:57;;;;;;;3.50;2.90;;;17.60;99.90;;;;;;4981935;28;20436;-53
2022/04/06 13:03:25;;;;;;;2.83;2.63;;;17.40;99.90;;;;;;4977044;28;20466;-51
2022/04/06 13:05:53;;;;;;;4.70;3.03;;;17.50;99.90;;;;;;4984912;28;20465;-53
2022/04/06 13:08:22;;;;;;;2.60;2.40;;;17.80;99.90;;;;;;4984224;28;20618;-53
2022/04/06 13:10:49;;;;;;;3.50;3.20;;;18.00;99.90;;;;;;4984762;28;20441;-56
2022/04/06 13:13:17;;;;;;;3.47;3.17;;;18.10;99.90;;;;;;4984808;28;20538;-51